Time;durP1;ratioP1;P1;durP2;ratioP2;P2;SDS_P1;SDS_P2;PMS_P1;PMS_P2;Temp;Humidity;BMP_temperature;BMP_pressure;BME280_temperature;BME280_humidity;BME280_pressure;Samples;Min_cycle;Max_cycle;Signal;HPM_P1;HPM_P2
2023/01/28 00:01:18;;;;;;;2.47;1.92;;;;;;;0.60;43.82;102983.44;4977608;28;20053;-74
2023/01/28 00:03:44;;;;;;;4.40;3.47;;;;;;;0.62;43.81;102981.78;4979582;28;20049;-77
2023/01/28 00:06:13;;;;;;;4.88;2.72;;;;;;;0.67;43.28;102982.81;4977886;28;20038;-75
2023/01/28 00:08:39;;;;;;;4.10;1.77;;;;;;;0.62;43.52;102974.94;4978098;28;20077;-77
2023/01/28 00:11:06;;;;;;;4.78;2.05;;;;;;;0.52;43.39;102967.69;4980147;28;20500;-77
2023/01/28 00:13:32;;;;;;;2.92;2.35;;;;;;;0.37;43.45;102969.75;4980590;28;20392;-77
2023/01/28 00:16:00;;;;;;;3.72;2.45;;;;;;;0.20;44.05;102961.41;4978991;28;20038;-76
2023/01/28 00:18:27;;;;;;;3.53;2.35;;;;;;;0.10;44.53;102967.94;4977043;28;20038;-77
2023/01/28 00:20:57;;;;;;;3.80;2.80;;;;;;;-0.03;44.81;102968.28;4976358;28;20051;-77
2023/01/28 00:23:23;;;;;;;6.03;2.88;;;;;;;-0.09;44.54;102965.47;4978656;28;20030;-77
2023/01/28 00:25:49;;;;;;;3.42;2.45;;;;;;;-0.16;44.44;102966.94;4981779;28;20112;-75
2023/01/28 00:28:14;;;;;;;2.85;2.40;;;;;;;-0.17;44.63;102960.94;4985065;28;20103;-75
2023/01/28 00:30:39;;;;;;;3.75;2.42;;;;;;;-0.22;44.82;102959.84;4984941;28;20038;-77
2023/01/28 00:33:05;;;;;;;5.15;2.20;;;;;;;-0.16;44.62;102967.81;4983922;28;20034;-77
2023/01/28 00:35:31;;;;;;;2.97;2.33;;;;;;;-0.15;44.67;102974.72;4979840;28;20049;-77
2023/01/28 00:37:56;;;;;;;4.10;3.22;;;;;;;-0.23;44.94;102976.09;4980755;28;20038;-77
2023/01/28 00:40:21;;;;;;;6.22;3.50;;;;;;;-0.29;45.32;102972.41;4980591;28;20126;-76
2023/01/28 00:42:47;;;;;;;4.13;2.95;;;;;;;-0.31;45.40;102974.91;4981731;28;20046;-77
2023/01/28 00:45:12;;;;;;;3.80;2.45;;;;;;;-0.29;45.30;102970.72;4983476;28;20034;-76
2023/01/28 00:47:38;;;;;;;6.70;3.17;;;;;;;-0.36;45.27;102967.03;4980700;28;20035;-76
2023/01/28 00:50:04;;;;;;;4.10;2.65;;;;;;;-0.37;45.67;102967.88;4982216;28;20050;-75
2023/01/28 00:52:30;;;;;;;4.80;3.75;;;;;;;-0.30;45.64;102966.41;4981217;28;20030;-76
2023/01/28 00:54:56;;;;;;;3.47;2.70;;;;;;;-0.39;45.59;102963.50;4982140;28;20518;-76
2023/01/28 00:57:21;;;;;;;7.80;3.47;;;;;;;-0.52;45.91;102950.97;4980828;28;20595;-76
2023/01/28 00:59:47;;;;;;;3.50;3.03;;;;;;;-0.61;46.25;102962.63;4979448;28;20046;-76
2023/01/28 01:02:13;;;;;;;4.75;1.90;;;;;;;-0.62;46.17;102963.44;4984352;28;20073;-77
2023/01/28 01:04:39;;;;;;;4.80;2.83;;;;;;;-0.66;46.24;102964.16;4980069;28;20038;-76
2023/01/28 01:07:05;;;;;;;4.63;3.03;;;;;;;-0.61;46.39;102970.34;4983918;28;20766;-77
2023/01/28 01:09:31;;;;;;;3.40;2.53;;;;;;;-0.63;46.14;102973.66;4978384;28;20038;-77
2023/01/28 01:11:56;;;;;;;3.15;1.88;;;;;;;-0.64;46.13;102977.03;4982443;28;20554;-76
2023/01/28 01:14:22;;;;;;;4.53;2.83;;;;;;;-0.68;46.18;102981.19;4979926;28;20061;-76
2023/01/28 01:16:47;;;;;;;4.30;2.78;;;;;;;-0.66;46.14;102982.13;4981783;28;20046;-77
2023/01/28 01:19:13;;;;;;;2.92;2.45;;;;;;;-0.68;46.23;102973.47;4983730;28;20034;-76
2023/01/28 01:21:38;;;;;;;4.07;2.88;;;;;;;-0.77;46.23;102975.69;4978848;28;20042;-77
2023/01/28 01:24:04;;;;;;;5.35;2.63;;;;;;;-0.75;46.51;102981.72;4982641;28;20256;-77
2023/01/28 01:26:29;;;;;;;5.53;3.17;;;;;;;-0.65;46.15;102975.28;4978564;28;20366;-77
2023/01/28 01:28:56;;;;;;;3.38;2.42;;;;;;;-0.80;46.57;102980.66;4967116;28;20034;-77
2023/01/28 01:31:22;;;;;;;3.50;2.55;;;;;;;-0.85;46.58;102979.59;4979993;28;20099;-77
2023/01/28 01:33:49;;;;;;;3.17;2.75;;;;;;;-0.80;46.70;102975.53;4982077;28;20042;-77
2023/01/28 01:36:18;;;;;;;5.88;2.55;;;;;;;-0.74;46.43;102983.50;4980746;28;20439;-76
2023/01/28 01:38:44;;;;;;;4.22;2.40;;;;;;;-0.78;46.28;102974.78;4982954;28;20046;-76
2023/01/28 01:41:21;;;;;;;4.10;2.80;;;;;;;-0.88;46.39;102982.06;4980343;28;20038;-76
2023/01/28 01:43:56;;;;;;;4.82;2.80;;;;;;;-1.13;46.84;102972.41;4980820;28;20054;-76
2023/01/28 01:46:30;;;;;;;6.82;2.00;;;;;;;-1.21;47.47;102983.22;4964294;28;20026;-77
2023/01/28 01:49:12;;;;;;;4.85;2.60;;;;;;;-1.19;46.96;102979.03;4982677;28;20038;-76
2023/01/28 01:51:38;;;;;;;3.40;2.40;;;;;;;-1.22;47.39;102980.59;4980418;28;20062;-77
2023/01/28 01:54:05;;;;;;;5.63;3.08;;;;;;;-1.34;47.36;102985.19;4984272;28;20034;-76
2023/01/28 01:56:37;;;;;;;4.32;2.80;;;;;;;-1.54;47.87;102986.91;4978815;28;20053;-77
2023/01/28 01:59:05;;;;;;;4.72;2.80;;;;;;;-1.76;48.32;102987.63;4982676;28;20045;-74
2023/01/28 02:01:31;;;;;;;5.03;2.67;;;;;;;-1.70;48.11;102986.22;4980337;28;20042;-77
2023/01/28 02:04:07;;;;;;;3.85;2.70;;;;;;;-1.62;48.28;102989.09;4982435;28;20026;-77
2023/01/28 02:06:35;;;;;;;4.78;2.95;;;;;;;-1.43;47.95;102989.09;4962514;28;20268;-75
2023/01/28 02:09:02;;;;;;;4.78;3.17;;;;;;;-1.27;48.00;102984.66;4982872;28;20034;-78
2023/01/28 02:11:31;;;;;;;5.40;2.80;;;;;;;-1.25;48.07;102976.19;4978975;28;20672;-74
2023/01/28 02:14:01;;;;;;;6.10;3.10;;;;;;;-1.29;48.30;102981.13;4980469;28;20038;-77
2023/01/28 02:16:27;;;;;;;7.85;3.25;;;;;;;-1.35;48.39;102981.75;4978780;28;20045;-77
2023/01/28 02:18:52;;;;;;;4.65;2.53;;;;;;;-1.31;48.61;102983.63;4979867;28;20110;-76
2023/01/28 02:21:47;;;;;;;5.03;2.90;;;;;;;-1.15;48.35;102982.63;4977556;28;20074;-75
2023/01/28 02:24:31;;;;;;;6.53;4.13;;;;;;;-1.14;48.44;102984.38;4981571;28;20036;-75
2023/01/28 02:27:15;;;;;;;4.78;3.25;;;;;;;-1.20;48.52;102990.13;4955898;28;20182;-76
2023/01/28 02:30:15;;;;;;;5.65;3.10;;;;;;;-1.39;49.00;102982.44;4979917;28;20431;-76
2023/01/28 02:32:52;;;;;;;5.47;4.18;;;;;;;-1.47;49.36;102974.38;4979600;28;20538;-76
2023/01/28 02:35:27;;;;;;;6.00;3.35;;;;;;;-1.48;49.08;102977.78;4980142;28;20038;-77
2023/01/28 02:38:15;;;;;;;4.78;3.17;;;;;;;-1.32;48.53;102978.44;4977962;28;20038;-77
2023/01/28 02:41:03;;;;;;;9.48;4.15;;;;;;;-1.33;48.74;102974.13;4959058;28;20050;-76
2023/01/28 02:43:34;;;;;;;7.25;3.38;;;;;;;-1.38;48.76;102974.78;4959789;28;20033;-76
2023/01/28 02:48:56;;;;;;;8.40;4.47;;;;;;;-1.42;48.99;102980.63;4981377;28;20027;-75
2023/01/28 02:51:43;;;;;;;5.45;3.67;;;;;;;-1.56;49.32;102979.13;4978990;28;20038;-77
2023/01/28 02:54:17;;;;;;;6.28;4.10;;;;;;;-1.46;49.11;102976.16;4982984;28;20022;-76
2023/01/28 02:57:06;;;;;;;7.78;4.13;;;;;;;-1.56;49.24;102974.00;4980323;28;20034;-76
2023/01/28 03:00:04;;;;;;;8.57;4.65;;;;;;;-1.63;49.61;102961.72;4960959;28;20757;-76
2023/01/28 03:02:35;;;;;;;8.88;4.95;;;;;;;-1.53;49.29;102953.63;4980732;28;20369;-77
2023/01/28 03:05:09;;;;;;;5.90;3.35;;;;;;;-1.59;49.07;102964.47;4980680;28;20050;-77
2023/01/28 03:07:37;;;;;;;10.00;3.58;;;;;;;-1.60;49.79;102961.84;4978185;28;20041;-77
2023/01/28 03:10:08;;;;;;;6.20;3.63;;;;;;;-1.63;49.61;102964.28;4962907;28;20679;-77
2023/01/28 03:38:16;;;;;;;5.95;2.97;;;;;;;-1.50;49.63;102964.00;4981603;28;20577;-77
2023/01/28 03:40:56;;;;;;;6.72;3.80;;;;;;;-1.46;49.72;102965.91;4979578;28;20038;-77
2023/01/28 03:43:22;;;;;;;6.85;3.75;;;;;;;-1.36;49.42;102963.72;4978963;28;20085;-77
2023/01/28 03:45:52;;;;;;;6.75;4.03;;;;;;;-1.48;49.45;102962.38;4979501;28;20049;-76
2023/01/28 03:48:20;;;;;;;5.65;3.65;;;;;;;-1.54;49.60;102964.69;4963362;28;20041;-75
2023/01/28 03:50:47;;;;;;;7.20;3.55;;;;;;;-1.43;49.71;102971.16;4979324;28;20076;-77
2023/01/28 03:53:14;;;;;;;4.45;3.13;;;;;;;-1.43;49.58;102970.28;4980557;28;20030;-77
2023/01/28 03:55:49;;;;;;;6.10;3.28;;;;;;;-1.42;49.53;102972.94;4980623;28;20042;-77
2023/01/28 03:58:16;;;;;;;9.27;3.90;;;;;;;-1.39;49.85;102973.03;4979292;28;20043;-76
2023/01/28 04:00:43;;;;;;;7.05;3.58;;;;;;;-1.33;49.45;102972.44;4982011;28;20053;-76
2023/01/28 04:03:16;;;;;;;5.25;2.85;;;;;;;-1.36;49.09;102966.28;4986913;28;20034;-77
2023/01/28 04:06:05;;;;;;;3.80;2.63;;;;;;;-1.43;49.49;102966.03;4985033;28;20045;-77
2023/01/28 04:08:58;;;;;;;5.78;3.20;;;;;;;-1.37;49.42;102975.69;4957592;28;20309;-77
2023/01/28 04:11:50;;;;;;;6.55;3.30;;;;;;;-1.44;49.31;102973.63;4959013;28;20046;-77
2023/01/28 04:14:22;;;;;;;12.00;3.75;;;;;;;-1.58;49.85;102983.31;4983073;28;20029;-77
2023/01/28 04:16:53;;;;;;;4.88;3.63;;;;;;;-1.46;49.46;102972.72;4982427;28;20062;-78
2023/01/28 04:19:20;;;;;;;4.57;2.65;;;;;;;-1.55;49.57;102968.06;4985732;28;20492;-77
2023/01/28 04:21:46;;;;;;;8.23;4.00;;;;;;;-1.63;49.68;102967.72;4981719;28;20034;-77
2023/01/28 04:24:12;;;;;;;5.47;3.60;;;;;;;-1.51;49.89;102974.19;4986421;28;20077;-77
2023/01/28 04:26:38;;;;;;;9.70;3.38;;;;;;;-1.49;49.50;102963.19;4981204;28;20396;-77
2023/01/28 04:29:04;;;;;;;4.60;3.20;;;;;;;-1.62;49.92;102960.88;4983000;28;20094;-77
2023/01/28 04:31:32;;;;;;;6.05;3.00;;;;;;;-1.69;50.12;102956.31;4982778;28;20464;-77
2023/01/28 04:34:19;;;;;;;4.43;2.58;;;;;;;-1.66;50.19;102956.47;4963301;28;20038;-77
2023/01/28 04:37:12;;;;;;;6.75;2.28;;;;;;;-1.72;50.39;102945.94;4983607;28;20042;-77
2023/01/28 04:39:44;;;;;;;6.32;2.90;;;;;;;-1.73;50.02;102939.03;4981671;28;20514;-77
2023/01/28 04:42:20;;;;;;;4.28;2.53;;;;;;;-1.72;50.24;102940.81;4981301;28;20509;-76
2023/01/28 04:45:09;;;;;;;4.35;2.83;;;;;;;-1.79;50.59;102939.66;4978591;28;20035;-76
2023/01/28 04:47:53;;;;;;;5.85;2.97;;;;;;;-1.89;50.64;102938.38;4984174;28;20409;-77
2023/01/28 04:50:31;;;;;;;4.80;2.58;;;;;;;-1.72;51.15;102933.97;4980359;28;20035;-76
2023/01/28 04:53:26;;;;;;;6.20;2.60;;;;;;;-1.73;50.66;102923.66;4981865;28;20409;-77
2023/01/28 04:55:56;;;;;;;3.72;2.80;;;;;;;-1.76;50.52;102915.84;4981916;28;20972;-77
2023/01/28 04:58:23;;;;;;;5.00;3.00;;;;;;;-1.80;50.27;102910.59;4982476;28;20037;-77
2023/01/28 05:00:58;;;;;;;6.63;2.42;;;;;;;-1.86;50.23;102918.00;4983738;28;20038;-77
2023/01/28 05:03:24;;;;;;;9.57;2.20;;;;;;;-1.90;50.28;102928.03;4980827;28;20030;-77
2023/01/28 05:05:50;;;;;;;5.57;2.72;;;;;;;-1.85;50.33;102929.13;4980357;28;20049;-77
2023/01/28 05:08:35;;;;;;;6.88;2.80;;;;;;;-1.76;50.61;102919.25;4981138;28;20181;-77
2023/01/28 05:11:01;;;;;;;5.00;2.65;;;;;;;-1.73;50.44;102918.50;4964458;28;20045;-75
2023/01/28 05:13:26;;;;;;;5.75;3.15;;;;;;;-1.79;50.34;102916.56;4980932;28;20026;-77
2023/01/28 05:15:52;;;;;;;5.20;3.17;;;;;;;-1.84;50.40;102926.63;4979958;28;20039;-77
2023/01/28 05:18:19;;;;;;;6.38;3.00;;;;;;;-1.74;50.38;102911.66;4984367;28;20657;-77
2023/01/28 05:21:00;;;;;;;6.40;2.50;;;;;;;-1.75;50.37;102915.03;4983017;28;20100;-77
2023/01/28 05:23:26;;;;;;;4.75;2.45;;;;;;;-1.72;50.35;102917.72;4980982;28;20113;-77
2023/01/28 05:25:54;;;;;;;3.50;2.30;;;;;;;-1.94;51.11;102903.94;4982748;28;20193;-77
2023/01/28 05:28:21;;;;;;;6.82;2.95;;;;;;;-1.76;50.67;102908.13;4979967;28;20031;-76
2023/01/28 05:30:46;;;;;;;3.80;2.35;;;;;;;-1.70;50.53;102928.94;4981086;28;20046;-77
2023/01/28 05:33:12;;;;;;;5.82;3.85;;;;;;;-1.72;50.49;102917.72;4981994;28;20027;-76
2023/01/28 05:35:37;;;;;;;5.80;2.92;;;;;;;-1.85;50.66;102917.16;4977798;28;20046;-77
2023/01/28 05:38:04;;;;;;;3.80;2.72;;;;;;;-1.71;50.65;102917.81;4982925;28;20034;-77
2023/01/28 05:40:29;;;;;;;7.75;3.72;;;;;;;-1.58;50.41;102924.31;4977529;28;20149;-76
2023/01/28 05:42:55;;;;;;;9.63;3.42;;;;;;;-1.53;50.32;102916.81;4980123;28;20072;-76
2023/01/28 05:45:31;;;;;;;8.55;3.05;;;;;;;-1.44;50.27;102915.53;4978636;28;20042;-76
2023/01/28 05:48:04;;;;;;;5.45;3.70;;;;;;;-1.40;50.06;102914.88;4980156;28;20547;-77
2023/01/28 05:51:04;;;;;;;6.53;3.63;;;;;;;-1.22;50.02;102913.88;4981168;28;20237;-77
2023/01/28 05:53:32;;;;;;;5.65;2.95;;;;;;;-1.27;49.63;102907.69;4977399;28;20533;-77
2023/01/28 05:55:58;;;;;;;7.75;3.70;;;;;;;-1.44;49.24;102912.09;4958637;28;20034;-77
2023/01/28 05:58:26;;;;;;;4.20;2.95;;;;;;;-1.25;49.24;102909.47;4981612;28;20056;-76
2023/01/28 06:00:55;;;;;;;7.50;3.55;;;;;;;-1.51;49.70;102910.97;4980069;28;20168;-77
2023/01/28 06:03:25;;;;;;;8.38;2.85;;;;;;;-1.38;49.49;102914.91;4983710;28;20558;-77
2023/01/28 06:05:51;;;;;;;5.72;3.33;;;;;;;-1.72;50.28;102918.59;4980677;28;20097;-77
2023/01/28 06:08:16;;;;;;;6.53;3.72;;;;;;;-1.69;50.35;102920.41;4980614;28;20057;-76
2023/01/28 06:10:42;;;;;;;7.60;3.15;;;;;;;-1.61;49.58;102913.94;4979751;28;20074;-77
2023/01/28 06:13:07;;;;;;;5.47;3.83;;;;;;;-1.71;50.05;102915.25;4982020;28;20037;-76
2023/01/28 06:15:53;;;;;;;7.78;3.67;;;;;;;-1.70;50.23;102923.81;4978108;28;20038;-77
2023/01/28 06:18:40;;;;;;;5.40;3.45;;;;;;;-1.83;50.55;102923.25;4979311;28;20726;-77
2023/01/28 06:21:05;;;;;;;7.07;4.03;;;;;;;-1.68;50.09;102930.75;4981152;28;20048;-76
2023/01/28 06:23:31;;;;;;;7.03;3.83;;;;;;;-1.67;49.61;102929.91;4979861;28;20034;-76
2023/01/28 06:25:57;;;;;;;8.48;4.50;;;;;;;-2.03;50.89;102934.28;4963696;28;20069;-76
2023/01/28 06:28:23;;;;;;;7.20;3.92;;;;;;;-1.91;50.53;102927.19;4981035;28;20108;-76
2023/01/28 06:30:50;;;;;;;7.00;4.25;;;;;;;-2.27;51.23;102924.69;4980061;28;20108;-76
2023/01/28 06:33:17;;;;;;;8.32;4.60;;;;;;;-2.05;50.88;102935.91;4980408;28;20026;-77
2023/01/28 06:35:42;;;;;;;6.25;4.13;;;;;;;-1.92;50.18;102933.09;4959259;28;20038;-76
2023/01/28 06:38:08;;;;;;;8.85;4.32;;;;;;;-2.09;50.82;102944.25;4981314;28;21354;-76
2023/01/28 06:40:34;;;;;;;9.45;4.50;;;;;;;-1.93;50.17;102941.59;4977016;28;20113;-76
2023/01/28 06:42:59;;;;;;;6.15;4.15;;;;;;;-2.15;51.28;102936.31;4981897;28;20567;-77
2023/01/28 06:45:25;;;;;;;10.85;4.53;;;;;;;-1.96;50.55;102935.44;4978580;28;20054;-77
2023/01/28 06:47:51;;;;;;;15.25;4.65;;;;;;;-1.86;50.01;102941.06;4981095;28;20085;-77
2023/01/28 06:50:16;;;;;;;6.85;4.35;;;;;;;-1.85;49.84;102942.81;4979779;28;20179;-76
2023/01/28 06:52:42;;;;;;;7.78;4.10;;;;;;;-1.87;50.35;102946.97;4980937;28;20038;-77
2023/01/28 06:55:08;;;;;;;8.90;4.20;;;;;;;-1.93;49.96;102946.72;4983216;28;20044;-77
2023/01/28 06:57:36;;;;;;;7.97;3.83;;;;;;;-1.92;50.05;102955.28;4979265;28;20056;-76
2023/01/28 07:00:01;;;;;;;7.43;5.00;;;;;;;-2.11;50.54;102951.00;4980506;28;20065;-77
2023/01/28 07:02:27;;;;;;;8.02;5.22;;;;;;;-2.10;50.53;102948.50;4979211;28;20157;-77
2023/01/28 07:04:52;;;;;;;8.02;5.15;;;;;;;-2.17;50.27;102950.72;4977819;28;20575;-77
2023/01/28 07:07:17;;;;;;;9.00;4.88;;;;;;;-2.30;50.73;102959.53;4977294;28;20455;-79
2023/01/28 07:09:43;;;;;;;7.60;4.32;;;;;;;-2.24;50.44;102953.00;4963153;28;20519;-77
2023/01/28 07:12:09;;;;;;;9.82;4.10;;;;;;;-2.32;51.00;102962.00;4980948;28;20563;-76
2023/01/28 07:14:34;;;;;;;6.03;4.95;;;;;;;-2.26;50.24;102962.31;4980390;28;20100;-77
2023/01/28 07:16:59;;;;;;;4.85;3.53;;;;;;;-2.22;50.02;102964.19;4980795;28;20026;-77
2023/01/28 07:19:25;;;;;;;6.13;4.60;;;;;;;-2.33;50.42;102970.50;4979508;28;20520;-79
2023/01/28 07:21:50;;;;;;;9.13;5.20;;;;;;;-2.34;50.76;102978.13;4979003;28;20050;-78
2023/01/28 07:24:16;;;;;;;7.15;4.60;;;;;;;-2.23;50.14;102975.25;4976611;28;20034;-78
2023/01/28 07:26:41;;;;;;;6.55;4.95;;;;;;;-2.27;50.50;102965.69;4977150;28;20042;-78
2023/01/28 07:29:08;;;;;;;7.80;4.65;;;;;;;-2.23;50.12;102962.44;4980748;28;20121;-79
2023/01/28 07:31:33;;;;;;;7.95;4.88;;;;;;;-2.27;49.97;102960.56;4979062;28;20545;-78
2023/01/28 07:33:59;;;;;;;8.00;4.50;;;;;;;-2.34;50.65;102948.25;4976793;28;20027;-78
2023/01/28 07:36:24;;;;;;;6.03;4.43;;;;;;;-2.46;51.30;102940.88;4975228;28;20687;-79
2023/01/28 07:38:50;;;;;;;7.07;4.97;;;;;;;-2.40;50.90;102959.88;4977588;28;20045;-78
2023/01/28 07:41:15;;;;;;;9.05;5.25;;;;;;;-2.31;50.60;102965.44;4975538;28;20153;-78
2023/01/28 07:43:42;;;;;;;7.45;4.43;;;;;;;-2.29;50.40;102967.28;4977715;28;20042;-77
2023/01/28 07:46:07;;;;;;;7.07;4.85;;;;;;;-2.32;51.02;102961.13;4975711;28;20027;-78
2023/01/28 07:48:34;;;;;;;10.65;4.65;;;;;;;-2.19;50.75;102957.47;4977983;28;20030;-78
2023/01/28 07:51:01;;;;;;;9.93;5.32;;;;;;;-2.15;50.85;102957.69;4977964;28;20058;-78
2023/01/28 07:53:27;;;;;;;9.05;4.80;;;;;;;-2.07;50.80;102969.16;4979196;28;20073;-77
2023/01/28 07:55:58;;;;;;;9.07;5.50;;;;;;;-1.93;49.98;102972.34;4976301;28;20856;-78
2023/01/28 07:58:24;;;;;;;6.85;3.58;;;;;;;-1.43;49.89;102965.16;4976829;28;20108;-78
2023/01/28 08:00:50;;;;;;;10.90;6.00;;;;;;;-1.23;49.22;102968.56;4977157;28;20631;-78
2023/01/28 08:03:16;;;;;;;8.30;5.05;;;;;;;-1.16;48.28;102965.44;4977062;28;20491;-78
2023/01/28 08:05:47;;;;;;;9.52;5.55;;;;;;;-0.99;48.10;102976.47;4958846;28;20049;-78
2023/01/28 08:08:13;;;;;;;7.05;5.15;;;;;;;-0.54;46.67;102973.16;4977287;28;20097;-79
2023/01/28 08:10:39;;;;;;;8.93;6.20;;;;;;;-0.46;46.93;102984.59;4975507;28;20042;-78
2023/01/28 08:13:06;;;;;;;5.18;4.07;;;;;;;-0.24;46.60;102994.91;4980927;28;20045;-78
2023/01/28 08:15:33;;;;;;;7.63;4.85;;;;;;;-0.44;45.64;102998.38;4976317;28;20532;-79
2023/01/28 08:17:59;;;;;;;6.10;4.45;;;;;;;-0.73;46.68;103012.59;4977984;28;20033;-78
2023/01/28 08:20:26;;;;;;;7.70;5.03;;;;;;;-0.47;46.83;103004.28;4978390;28;20038;-78
2023/01/28 08:22:52;;;;;;;7.05;4.78;;;;;;;0.06;46.09;103009.78;4977019;28;20042;-79
2023/01/28 08:25:18;;;;;;;4.93;3.88;;;;;;;1.19;44.62;103009.47;4978355;28;20234;-78
2023/01/28 08:27:44;;;;;;;6.50;4.63;;;;;;;2.26;42.14;103004.22;4976837;28;20026;-79
2023/01/28 08:30:10;;;;;;;6.72;4.65;;;;;;;2.99;40.79;103010.53;4979300;28;20675;-78
2023/01/28 08:32:36;;;;;;;6.28;4.30;;;;;;;3.25;39.22;103008.63;4977026;28;21061;-79
2023/01/28 08:35:03;;;;;;;7.75;4.82;;;;;;;4.20;36.00;103005.63;4960931;28;20038;-78
2023/01/28 08:37:28;;;;;;;5.70;3.90;;;;;;;5.07;35.26;103003.00;4977424;28;20045;-77
2023/01/28 08:39:54;;;;;;;5.38;4.05;;;;;;;6.11;34.32;103013.22;4977052;28;20408;-77
2023/01/28 08:42:19;;;;;;;10.45;4.50;;;;;;;6.61;31.68;103010.34;4977978;28;20515;-77
2023/01/28 08:44:44;;;;;;;4.80;3.53;;;;;;;6.63;30.78;103014.72;4978333;28;20746;-77
2023/01/28 08:47:10;;;;;;;4.65;4.10;;;;;;;5.88;32.70;103017.22;4982572;28;20066;-77
2023/01/28 08:49:35;;;;;;;3.97;3.38;;;;;;;6.02;31.87;103014.81;4979122;28;20034;-77
2023/01/28 08:52:01;;;;;;;5.20;3.72;;;;;;;5.11;35.15;103020.34;4982528;28;20456;-77
2023/01/28 08:54:26;;;;;;;5.68;4.30;;;;;;;5.22;33.59;103021.41;4967899;28;20069;-76
2023/01/28 08:56:52;;;;;;;4.65;3.90;;;;;;;5.86;34.36;103023.25;4985424;28;20057;-78
2023/01/28 08:59:17;;;;;;;4.18;3.47;;;;;;;6.31;33.01;103026.44;4986822;28;20037;-78
2023/01/28 09:01:43;;;;;;;9.80;5.10;;;;;;;6.15;33.82;103007.16;4988888;28;20052;-79
2023/01/28 09:04:08;;;;;;;10.43;6.47;;;;;;;5.37;34.73;103006.91;4969203;28;20077;-77
2023/01/28 09:06:34;;;;;;;13.68;7.45;;;;;;;6.06;32.61;103021.81;4990251;28;20318;-77
2023/01/28 09:09:00;;;;;;;9.35;5.78;;;;;;;5.64;34.51;103016.88;4986934;28;20030;-78
2023/01/28 09:11:26;;;;;;;7.28;4.55;;;;;;;4.97;37.63;103017.50;4971766;28;20503;-79
2023/01/28 09:13:51;;;;;;;6.88;4.28;;;;;;;5.76;34.41;103016.19;4988389;28;20039;-77
2023/01/28 09:16:17;;;;;;;7.38;3.85;;;;;;;5.40;35.33;103007.84;4988941;28;20443;-78
2023/01/28 09:18:42;;;;;;;6.38;3.95;;;;;;;4.62;35.02;103019.41;4987439;28;20037;-78
2023/01/28 09:21:08;;;;;;;8.30;4.68;;;;;;;4.20;38.40;103022.88;4988744;28;20452;-77
2023/01/28 09:23:35;;;;;;;6.35;4.20;;;;;;;3.63;37.89;103011.28;4989320;28;20030;-77
2023/01/28 09:26:01;;;;;;;7.00;3.85;;;;;;;4.62;38.02;103014.22;4986422;28;20503;-79
2023/01/28 09:28:28;;;;;;;8.20;3.83;;;;;;;4.55;37.21;103013.25;4985826;28;20057;-77
2023/01/28 09:31:07;;;;;;;4.90;3.08;;;;;;;4.30;37.90;103005.84;4982304;28;20633;-77
2023/01/28 09:33:34;;;;;;;8.75;3.30;;;;;;;4.43;37.86;103008.72;4977896;28;20034;-76
2023/01/28 09:36:01;;;;;;;6.40;4.90;;;;;;;4.30;38.29;103001.53;4981315;28;20046;-75
2023/01/28 09:38:27;;;;;;;6.20;3.38;;;;;;;3.23;40.52;103006.84;4978796;28;20092;-75
2023/01/28 09:40:54;;;;;;;5.65;3.28;;;;;;;2.68;41.66;103012.31;4977525;28;20082;-77
2023/01/28 09:43:39;;;;;;;6.25;2.72;;;;;;;2.57;42.28;103011.13;4978099;28;20033;-77
2023/01/28 09:46:09;;;;;;;4.28;2.83;;;;;;;2.00;43.75;103016.34;4978609;28;20750;-77
2023/01/28 09:48:43;;;;;;;4.75;3.05;;;;;;;2.09;43.71;103016.66;4976226;28;22170;-76
2023/01/28 09:51:15;;;;;;;6.78;3.30;;;;;;;2.52;42.99;103007.56;4976443;28;20050;-75
2023/01/28 09:53:47;;;;;;;4.47;3.20;;;;;;;2.12;43.61;103011.56;4961216;28;20085;-77
2023/01/28 09:56:25;;;;;;;6.13;2.97;;;;;;;2.11;43.94;103002.97;4979253;28;20053;-77
2023/01/28 09:58:51;;;;;;;8.35;3.17;;;;;;;2.51;43.78;103000.63;4978404;28;20045;-76
2023/01/28 10:01:43;;;;;;;9.02;3.75;;;;;;;2.31;43.23;102997.50;4975296;28;20046;-76
2023/01/28 10:04:33;;;;;;;5.63;2.50;;;;;;;3.17;42.23;102987.75;4978129;28;20045;-78
2023/01/28 10:07:08;;;;;;;6.07;3.97;;;;;;;3.26;42.72;102984.50;4975449;28;20523;-76
2023/01/28 10:09:34;;;;;;;6.80;2.80;;;;;;;3.08;42.04;102990.09;4973703;28;20830;-75
2023/01/28 10:12:20;;;;;;;6.70;3.05;;;;;;;3.74;41.03;102993.44;4977861;28;20719;-76
2023/01/28 10:15:05;;;;;;;8.82;3.00;;;;;;;3.48;41.39;102996.28;4977765;28;20050;-77
2023/01/28 10:17:35;;;;;;;7.07;3.33;;;;;;;3.37;41.36;102992.56;4974082;28;20173;-77
2023/01/28 10:20:14;;;;;;;4.65;2.97;;;;;;;2.84;42.52;102976.56;4978459;28;20042;-77
2023/01/28 10:22:49;;;;;;;3.85;2.45;;;;;;;2.77;42.44;102962.63;4975934;28;20117;-76
2023/01/28 10:25:18;;;;;;;4.80;2.70;;;;;;;2.97;43.30;102947.63;4974570;28;20173;-76
2023/01/28 10:27:46;;;;;;;3.97;2.45;;;;;;;3.31;42.08;102935.53;4975778;28;20038;-76
2023/01/28 10:30:18;;;;;;;4.57;2.33;;;;;;;2.66;43.32;102913.25;4974947;28;20049;-76
2023/01/28 10:32:51;;;;;;;8.82;2.83;;;;;;;2.21;44.44;102928.41;4976823;28;20053;-77
2023/01/28 10:35:16;;;;;;;4.53;2.33;;;;;;;1.74;44.79;102931.38;4974079;28;20050;-77
2023/01/28 10:37:42;;;;;;;9.25;2.88;;;;;;;1.80;45.63;102910.94;4976371;28;20104;-76
2023/01/28 10:40:16;;;;;;;3.45;2.45;;;;;;;2.33;44.29;102898.66;4977284;28;20737;-76
2023/01/28 10:42:43;;;;;;;6.22;2.38;;;;;;;2.77;43.60;102910.97;4977156;28;20491;-77
2023/01/28 10:45:44;;;;;;;5.45;2.70;;;;;;;3.19;43.10;102900.78;4975459;28;20045;-77
2023/01/28 10:48:22;;;;;;;4.60;2.40;;;;;;;3.13;42.67;102902.34;4903306;28;20056;-77
2023/01/28 10:50:58;;;;;;;7.60;2.83;;;;;;;3.30;42.53;102902.78;4975168;28;20042;-76
2023/01/28 10:53:41;;;;;;;5.90;2.50;;;;;;;2.88;43.08;102908.66;4975273;28;20026;-76
2023/01/28 10:56:10;;;;;;;5.90;2.35;;;;;;;2.53;44.06;102918.94;4976863;28;20559;-76
2023/01/28 10:59:00;;;;;;;5.55;2.38;;;;;;;3.44;42.30;102916.91;4975225;28;20042;-76
2023/01/28 11:01:57;;;;;;;4.35;1.83;;;;;;;3.53;42.75;102921.41;4959824;28;20038;-77
2023/01/28 11:04:29;;;;;;;4.15;2.03;;;;;;;3.38;42.48;102921.91;4956971;28;20050;-76
2023/01/28 11:07:03;;;;;;;4.50;2.08;;;;;;;2.82;43.87;102936.91;4975690;28;20443;-76
2023/01/28 11:09:34;;;;;;;5.65;2.33;;;;;;;2.98;43.86;102928.72;4974876;28;20053;-76
2023/01/28 11:12:30;;;;;;;7.45;2.42;;;;;;;3.48;43.14;102936.81;4977277;28;20034;-77
2023/01/28 11:14:58;;;;;;;5.97;1.88;;;;;;;2.90;43.40;102932.81;4975183;28;20064;-76
2023/01/28 11:17:28;;;;;;;8.35;1.63;;;;;;;2.83;43.93;102931.78;4959835;28;20049;-76
2023/01/28 11:19:57;;;;;;;4.28;2.00;;;;;;;3.15;43.05;102921.34;4977447;28;20056;-76
2023/01/28 11:22:34;;;;;;;8.55;2.88;;;;;;;2.76;44.33;102933.34;4974778;28;20037;-77
2023/01/28 11:25:26;;;;;;;4.32;2.75;;;;;;;2.60;44.54;102933.78;4976240;28;20052;-76
2023/01/28 11:27:53;;;;;;;3.30;1.97;;;;;;;3.07;42.71;102931.53;4940636;28;20058;-76
2023/01/28 11:30:33;;;;;;;3.85;2.20;;;;;;;2.66;44.82;102930.47;4974037;28;22131;-76
2023/01/28 11:32:59;;;;;;;2.88;1.77;;;;;;;2.56;43.81;102927.66;4975689;28;20092;-77
2023/01/28 11:35:29;;;;;;;7.85;2.33;;;;;;;2.63;44.29;102935.56;4972224;28;20617;-76
2023/01/28 11:37:59;;;;;;;3.72;2.38;;;;;;;3.02;43.68;102932.22;4976490;28;20388;-76
2023/01/28 11:40:26;;;;;;;4.78;2.20;;;;;;;3.34;43.08;102925.31;4973819;28;20046;-77
2023/01/28 11:42:55;;;;;;;4.50;1.88;;;;;;;2.49;44.77;102914.56;4975805;28;20030;-75
2023/01/28 11:45:51;;;;;;;2.47;1.83;;;;;;;3.02;43.75;102907.25;4974214;28;20037;-76
2023/01/28 11:48:26;;;;;;;3.53;2.08;;;;;;;2.93;43.93;102907.03;4974490;28;20089;-76
2023/01/28 11:51:09;;;;;;;2.88;1.60;;;;;;;3.47;43.59;102888.53;4973475;28;20057;-76
2023/01/28 11:54:04;;;;;;;6.32;2.10;;;;;;;3.53;43.19;102880.03;4973528;28;20058;-76
2023/01/28 11:56:29;;;;;;;3.20;1.60;;;;;;;3.88;42.90;102873.00;4973480;28;20153;-77
2023/01/28 11:59:22;;;;;;;3.97;1.70;;;;;;;3.03;44.21;102893.53;4975651;28;20646;-76
2023/01/28 12:02:25;;;;;;;3.72;2.63;;;;;;;3.10;43.73;102899.72;4976609;28;20046;-76
2023/01/28 12:04:53;;;;;;;5.22;2.13;;;;;;;3.53;43.63;102896.41;4976687;28;20070;-75
2023/01/28 12:07:30;;;;;;;4.75;1.60;;;;;;;3.25;43.54;102878.50;4978399;28;20100;-76
2023/01/28 12:10:14;;;;;;;3.92;1.70;;;;;;;2.69;44.90;102879.78;4978783;28;20046;-77
2023/01/28 12:12:58;;;;;;;4.18;2.03;;;;;;;2.64;45.28;102873.63;4978747;28;20088;-76